sensor_id;sensor_type;location;lat;lon;timestamp;P1;durP1;ratioP1;P2;durP2;ratioP2
18838;SDS011;9548;56.920;14.804;2022-12-18T00:00:47;35.70;;;12.27;;
18838;SDS011;9548;56.920;14.804;2022-12-18T00:03:14;32.23;;;10.90;;
18838;SDS011;9548;56.920;14.804;2022-12-18T00:05:46;34.53;;;12.00;;
18838;SDS011;9548;56.920;14.804;2022-12-18T00:08:13;40.00;;;11.37;;
18838;SDS011;9548;56.920;14.804;2022-12-18T00:10:41;33.40;;;11.63;;
18838;SDS011;9548;56.920;14.804;2022-12-18T00:13:07;37.03;;;12.03;;
18838;SDS011;9548;56.920;14.804;2022-12-18T00:15:36;35.43;;;12.60;;
18838;SDS011;9548;56.920;14.804;2022-12-18T00:18:04;35.53;;;12.47;;
18838;SDS011;9548;56.920;14.804;2022-12-18T00:20:35;34.33;;;11.60;;
18838;SDS011;9548;56.920;14.804;2022-12-18T00:23:02;38.97;;;12.27;;
18838;SDS011;9548;56.920;14.804;2022-12-18T00:25:29;35.43;;;12.83;;
18838;SDS011;9548;56.920;14.804;2022-12-18T00:27:58;36.97;;;12.77;;
18838;SDS011;9548;56.920;14.804;2022-12-18T00:30:25;32.83;;;12.67;;
18838;SDS011;9548;56.920;14.804;2022-12-18T00:32:53;35.83;;;11.73;;
18838;SDS011;9548;56.920;14.804;2022-12-18T00:35:20;31.80;;;11.97;;
18838;SDS011;9548;56.920;14.804;2022-12-18T00:37:47;39.57;;;12.70;;
18838;SDS011;9548;56.920;14.804;2022-12-18T00:40:14;32.47;;;12.03;;
18838;SDS011;9548;56.920;14.804;2022-12-18T00:42:41;34.73;;;12.37;;
18838;SDS011;9548;56.920;14.804;2022-12-18T00:45:22;32.33;;;12.50;;
18838;SDS011;9548;56.920;14.804;2022-12-18T00:47:53;43.00;;;13.17;;
18838;SDS011;9548;56.920;14.804;2022-12-18T00:50:20;40.50;;;13.40;;
18838;SDS011;9548;56.920;14.804;2022-12-18T00:52:48;35.50;;;13.80;;
18838;SDS011;9548;56.920;14.804;2022-12-18T00:55:15;35.87;;;12.83;;
18838;SDS011;9548;56.920;14.804;2022-12-18T00:57:43;30.90;;;11.87;;
18838;SDS011;9548;56.920;14.804;2022-12-18T01:00:10;35.83;;;12.50;;
18838;SDS011;9548;56.920;14.804;2022-12-18T01:02:39;31.10;;;13.17;;
18838;SDS011;9548;56.920;14.804;2022-12-18T01:05:08;33.30;;;12.43;;
18838;SDS011;9548;56.920;14.804;2022-12-18T01:07:37;38.10;;;13.10;;
18838;SDS011;9548;56.920;14.804;2022-12-18T01:10:05;36.37;;;12.97;;
18838;SDS011;9548;56.920;14.804;2022-12-18T01:12:33;31.77;;;12.47;;
18838;SDS011;9548;56.920;14.804;2022-12-18T01:15:01;29.63;;;12.47;;
18838;SDS011;9548;56.920;14.804;2022-12-18T01:17:28;38.07;;;14.97;;
18838;SDS011;9548;56.920;14.804;2022-12-18T01:19:55;31.07;;;12.53;;
18838;SDS011;9548;56.920;14.804;2022-12-18T01:22:23;36.30;;;13.60;;
18838;SDS011;9548;56.920;14.804;2022-12-18T01:24:50;41.23;;;14.07;;
18838;SDS011;9548;56.920;14.804;2022-12-18T01:27:18;31.47;;;13.40;;
18838;SDS011;9548;56.920;14.804;2022-12-18T01:29:44;41.20;;;14.67;;
18838;SDS011;9548;56.920;14.804;2022-12-18T01:32:11;36.90;;;12.57;;
18838;SDS011;9548;56.920;14.804;2022-12-18T01:34:38;39.33;;;15.23;;
18838;SDS011;9548;56.920;14.804;2022-12-18T01:37:05;44.90;;;14.73;;
18838;SDS011;9548;56.920;14.804;2022-12-18T01:39:33;41.93;;;14.63;;
18838;SDS011;9548;56.920;14.804;2022-12-18T01:42:05;35.40;;;14.00;;
18838;SDS011;9548;56.920;14.804;2022-12-18T01:47:34;39.23;;;15.80;;
18838;SDS011;9548;56.920;14.804;2022-12-18T01:50:05;34.40;;;15.03;;
18838;SDS011;9548;56.920;14.804;2022-12-18T01:52:34;35.07;;;14.50;;
18838;SDS011;9548;56.920;14.804;2022-12-18T01:55:06;39.37;;;14.17;;
18838;SDS011;9548;56.920;14.804;2022-12-18T01:57:34;40.03;;;15.80;;
18838;SDS011;9548;56.920;14.804;2022-12-18T02:00:03;35.53;;;14.97;;
18838;SDS011;9548;56.920;14.804;2022-12-18T02:02:33;42.23;;;15.43;;
18838;SDS011;9548;56.920;14.804;2022-12-18T02:05:00;37.03;;;14.37;;
18838;SDS011;9548;56.920;14.804;2022-12-18T02:07:30;39.90;;;14.93;;
18838;SDS011;9548;56.920;14.804;2022-12-18T02:10:04;38.40;;;14.43;;
18838;SDS011;9548;56.920;14.804;2022-12-18T02:12:42;30.30;;;13.13;;
18838;SDS011;9548;56.920;14.804;2022-12-18T02:15:15;36.10;;;14.17;;
18838;SDS011;9548;56.920;14.804;2022-12-18T02:17:47;36.97;;;15.33;;
18838;SDS011;9548;56.920;14.804;2022-12-18T02:20:20;37.23;;;14.17;;
18838;SDS011;9548;56.920;14.804;2022-12-18T02:22:55;31.80;;;14.77;;
18838;SDS011;9548;56.920;14.804;2022-12-18T02:25:43;39.43;;;15.27;;
18838;SDS011;9548;56.920;14.804;2022-12-18T02:28:37;34.13;;;13.40;;
18838;SDS011;9548;56.920;14.804;2022-12-18T02:31:08;37.87;;;14.57;;
18838;SDS011;9548;56.920;14.804;2022-12-18T02:33:39;31.43;;;13.07;;
18838;SDS011;9548;56.920;14.804;2022-12-18T02:36:07;41.97;;;14.33;;
18838;SDS011;9548;56.920;14.804;2022-12-18T02:38:35;31.13;;;12.97;;
18838;SDS011;9548;56.920;14.804;2022-12-18T02:41:02;37.60;;;14.33;;
18838;SDS011;9548;56.920;14.804;2022-12-18T02:43:32;34.10;;;14.37;;
18838;SDS011;9548;56.920;14.804;2022-12-18T02:46:00;32.27;;;13.70;;
18838;SDS011;9548;56.920;14.804;2022-12-18T02:51:46;33.23;;;13.10;;
18838;SDS011;9548;56.920;14.804;2022-12-18T02:54:20;35.47;;;14.00;;
18838;SDS011;9548;56.920;14.804;2022-12-18T02:56:56;32.07;;;13.70;;
18838;SDS011;9548;56.920;14.804;2022-12-18T02:59:32;34.57;;;12.80;;
18838;SDS011;9548;56.920;14.804;2022-12-18T03:02:07;35.80;;;13.17;;
18838;SDS011;9548;56.920;14.804;2022-12-18T03:04:46;35.70;;;13.47;;
18838;SDS011;9548;56.920;14.804;2022-12-18T03:07:18;35.03;;;12.77;;
18838;SDS011;9548;56.920;14.804;2022-12-18T03:09:50;32.87;;;12.10;;
18838;SDS011;9548;56.920;14.804;2022-12-18T03:12:20;36.87;;;13.80;;
18838;SDS011;9548;56.920;14.804;2022-12-18T03:14:56;32.50;;;13.17;;
18838;SDS011;9548;56.920;14.804;2022-12-18T03:17:28;32.87;;;12.97;;
18838;SDS011;9548;56.920;14.804;2022-12-18T03:19:58;30.90;;;12.60;;
18838;SDS011;9548;56.920;14.804;2022-12-18T03:22:30;33.47;;;13.27;;
18838;SDS011;9548;56.920;14.804;2022-12-18T03:24:59;29.73;;;11.80;;
18838;SDS011;9548;56.920;14.804;2022-12-18T03:27:28;32.43;;;12.93;;
18838;SDS011;9548;56.920;14.804;2022-12-18T03:30:00;29.77;;;12.80;;
18838;SDS011;9548;56.920;14.804;2022-12-18T03:32:33;31.10;;;13.03;;
18838;SDS011;9548;56.920;14.804;2022-12-18T03:35:06;36.57;;;12.57;;
18838;SDS011;9548;56.920;14.804;2022-12-18T03:37:36;30.23;;;12.13;;
18838;SDS011;9548;56.920;14.804;2022-12-18T03:40:03;33.77;;;12.63;;
18838;SDS011;9548;56.920;14.804;2022-12-18T03:42:32;22.33;;;11.03;;
18838;SDS011;9548;56.920;14.804;2022-12-18T03:45:08;34.47;;;11.43;;
18838;SDS011;9548;56.920;14.804;2022-12-18T03:47:38;25.60;;;11.63;;
18838;SDS011;9548;56.920;14.804;2022-12-18T03:50:12;27.63;;;11.77;;
18838;SDS011;9548;56.920;14.804;2022-12-18T03:52:45;21.20;;;10.17;;
18838;SDS011;9548;56.920;14.804;2022-12-18T03:55:16;30.83;;;10.90;;
18838;SDS011;9548;56.920;14.804;2022-12-18T03:57:44;28.37;;;11.47;;
18838;SDS011;9548;56.920;14.804;2022-12-18T04:00:15;26.80;;;10.73;;
18838;SDS011;9548;56.920;14.804;2022-12-18T04:02:44;25.33;;;10.33;;
18838;SDS011;9548;56.920;14.804;2022-12-18T04:05:14;25.67;;;10.30;;
18838;SDS011;9548;56.920;14.804;2022-12-18T04:07:43;25.90;;;9.50;;
18838;SDS011;9548;56.920;14.804;2022-12-18T04:10:12;21.13;;;9.43;;
18838;SDS011;9548;56.920;14.804;2022-12-18T04:12:41;19.10;;;7.93;;
18838;SDS011;9548;56.920;14.804;2022-12-18T04:15:08;20.07;;;9.17;;
18838;SDS011;9548;56.920;14.804;2022-12-18T04:17:38;21.37;;;9.03;;
18838;SDS011;9548;56.920;14.804;2022-12-18T04:20:08;24.43;;;8.13;;
18838;SDS011;9548;56.920;14.804;2022-12-18T04:22:36;23.17;;;9.40;;
18838;SDS011;9548;56.920;14.804;2022-12-18T04:25:03;18.17;;;8.33;;
18838;SDS011;9548;56.920;14.804;2022-12-18T04:27:30;17.27;;;7.97;;
18838;SDS011;9548;56.920;14.804;2022-12-18T04:29:57;19.67;;;8.40;;
18838;SDS011;9548;56.920;14.804;2022-12-18T04:32:24;21.10;;;8.60;;
18838;SDS011;9548;56.920;14.804;2022-12-18T04:34:53;24.43;;;8.37;;
18838;SDS011;9548;56.920;14.804;2022-12-18T04:37:20;17.30;;;8.03;;
18838;SDS011;9548;56.920;14.804;2022-12-18T04:39:46;17.90;;;7.50;;
18838;SDS011;9548;56.920;14.804;2022-12-18T04:42:13;18.93;;;7.30;;
18838;SDS011;9548;56.920;14.804;2022-12-18T04:44:40;23.07;;;8.37;;
18838;SDS011;9548;56.920;14.804;2022-12-18T04:47:07;19.30;;;7.43;;
18838;SDS011;9548;56.920;14.804;2022-12-18T04:49:34;16.90;;;6.87;;
18838;SDS011;9548;56.920;14.804;2022-12-18T04:52:03;18.30;;;7.90;;
18838;SDS011;9548;56.920;14.804;2022-12-18T04:54:30;13.30;;;6.07;;
18838;SDS011;9548;56.920;14.804;2022-12-18T04:56:57;19.13;;;7.13;;
18838;SDS011;9548;56.920;14.804;2022-12-18T04:59:24;12.67;;;6.80;;
18838;SDS011;9548;56.920;14.804;2022-12-18T05:01:51;17.03;;;6.70;;
18838;SDS011;9548;56.920;14.804;2022-12-18T05:04:18;12.00;;;5.73;;
18838;SDS011;9548;56.920;14.804;2022-12-18T05:06:45;13.17;;;6.37;;
18838;SDS011;9548;56.920;14.804;2022-12-18T05:09:13;16.93;;;6.70;;
18838;SDS011;9548;56.920;14.804;2022-12-18T05:11:40;10.57;;;5.67;;
18838;SDS011;9548;56.920;14.804;2022-12-18T05:14:07;13.80;;;6.10;;
18838;SDS011;9548;56.920;14.804;2022-12-18T05:16:34;12.57;;;6.30;;
18838;SDS011;9548;56.920;14.804;2022-12-18T05:19:01;15.10;;;5.90;;
18838;SDS011;9548;56.920;14.804;2022-12-18T05:21:28;13.70;;;5.73;;
18838;SDS011;9548;56.920;14.804;2022-12-18T05:23:55;14.40;;;5.67;;
18838;SDS011;9548;56.920;14.804;2022-12-18T05:26:23;11.77;;;5.73;;
18838;SDS011;9548;56.920;14.804;2022-12-18T05:28:50;12.93;;;5.60;;
18838;SDS011;9548;56.920;14.804;2022-12-18T05:31:17;11.30;;;5.57;;
18838;SDS011;9548;56.920;14.804;2022-12-18T05:33:44;24.33;;;6.07;;
18838;SDS011;9548;56.920;14.804;2022-12-18T05:36:11;15.23;;;5.30;;
18838;SDS011;9548;56.920;14.804;2022-12-18T05:38:38;11.97;;;5.80;;
18838;SDS011;9548;56.920;14.804;2022-12-18T05:41:06;17.47;;;5.70;;
18838;SDS011;9548;56.920;14.804;2022-12-18T05:43:35;11.50;;;5.23;;
18838;SDS011;9548;56.920;14.804;2022-12-18T05:46:04;12.67;;;4.90;;
18838;SDS011;9548;56.920;14.804;2022-12-18T05:48:31;16.40;;;5.63;;
18838;SDS011;9548;56.920;14.804;2022-12-18T05:51:02;10.47;;;5.47;;
18838;SDS011;9548;56.920;14.804;2022-12-18T05:53:31;14.10;;;5.30;;
18838;SDS011;9548;56.920;14.804;2022-12-18T05:55:59;11.80;;;4.80;;
18838;SDS011;9548;56.920;14.804;2022-12-18T05:58:27;9.57;;;4.63;;
18838;SDS011;9548;56.920;14.804;2022-12-18T06:00:56;11.67;;;5.07;;
18838;SDS011;9548;56.920;14.804;2022-12-18T06:03:23;10.67;;;4.37;;
18838;SDS011;9548;56.920;14.804;2022-12-18T06:05:50;10.50;;;5.07;;
18838;SDS011;9548;56.920;14.804;2022-12-18T06:08:17;10.40;;;4.63;;
18838;SDS011;9548;56.920;14.804;2022-12-18T06:10:49;10.50;;;4.40;;
18838;SDS011;9548;56.920;14.804;2022-12-18T06:13:17;12.17;;;4.40;;
18838;SDS011;9548;56.920;14.804;2022-12-18T06:15:44;9.27;;;4.63;;
18838;SDS011;9548;56.920;14.804;2022-12-18T06:18:13;10.50;;;4.07;;
18838;SDS011;9548;56.920;14.804;2022-12-18T06:20:40;13.20;;;4.90;;
18838;SDS011;9548;56.920;14.804;2022-12-18T06:23:06;12.77;;;5.00;;
18838;SDS011;9548;56.920;14.804;2022-12-18T06:25:36;13.60;;;4.97;;
18838;SDS011;9548;56.920;14.804;2022-12-18T06:28:04;6.60;;;3.53;;
18838;SDS011;9548;56.920;14.804;2022-12-18T06:30:31;7.60;;;3.80;;
18838;SDS011;9548;56.920;14.804;2022-12-18T06:32:58;9.00;;;4.07;;
18838;SDS011;9548;56.920;14.804;2022-12-18T06:35:27;11.50;;;4.60;;
18838;SDS011;9548;56.920;14.804;2022-12-18T06:37:54;11.00;;;4.20;;
18838;SDS011;9548;56.920;14.804;2022-12-18T06:40:21;10.90;;;4.20;;
18838;SDS011;9548;56.920;14.804;2022-12-18T06:42:48;9.13;;;4.17;;
18838;SDS011;9548;56.920;14.804;2022-12-18T06:45:15;7.83;;;3.87;;
18838;SDS011;9548;56.920;14.804;2022-12-18T06:47:42;9.90;;;4.27;;
18838;SDS011;9548;56.920;14.804;2022-12-18T06:50:09;7.83;;;3.67;;
18838;SDS011;9548;56.920;14.804;2022-12-18T06:52:37;10.23;;;4.40;;
18838;SDS011;9548;56.920;14.804;2022-12-18T06:55:09;8.70;;;3.70;;
18838;SDS011;9548;56.920;14.804;2022-12-18T06:57:37;7.40;;;3.90;;
18838;SDS011;9548;56.920;14.804;2022-12-18T07:00:06;7.03;;;3.60;;
18838;SDS011;9548;56.920;14.804;2022-12-18T07:02:34;8.17;;;4.20;;
18838;SDS011;9548;56.920;14.804;2022-12-18T07:05:01;10.03;;;3.97;;
18838;SDS011;9548;56.920;14.804;2022-12-18T07:07:28;10.03;;;4.00;;
18838;SDS011;9548;56.920;14.804;2022-12-18T07:09:56;7.87;;;3.93;;
18838;SDS011;9548;56.920;14.804;2022-12-18T07:12:23;9.67;;;4.60;;
18838;SDS011;9548;56.920;14.804;2022-12-18T07:14:51;9.23;;;3.70;;
18838;SDS011;9548;56.920;14.804;2022-12-18T07:17:18;7.33;;;3.77;;
18838;SDS011;9548;56.920;14.804;2022-12-18T07:19:44;9.27;;;4.20;;
18838;SDS011;9548;56.920;14.804;2022-12-18T07:22:11;7.67;;;4.23;;
18838;SDS011;9548;56.920;14.804;2022-12-18T07:24:38;10.20;;;4.60;;
18838;SDS011;9548;56.920;14.804;2022-12-18T07:27:06;12.53;;;4.47;;
18838;SDS011;9548;56.920;14.804;2022-12-18T07:29:34;7.83;;;3.83;;
18838;SDS011;9548;56.920;14.804;2022-12-18T07:32:00;14.27;;;4.60;;
18838;SDS011;9548;56.920;14.804;2022-12-18T07:34:27;10.73;;;4.70;;
18838;SDS011;9548;56.920;14.804;2022-12-18T07:36:54;10.17;;;4.70;;
18838;SDS011;9548;56.920;14.804;2022-12-18T07:39:21;16.53;;;5.83;;
18838;SDS011;9548;56.920;14.804;2022-12-18T07:41:48;14.17;;;5.30;;
18838;SDS011;9548;56.920;14.804;2022-12-18T07:44:37;13.73;;;5.47;;
18838;SDS011;9548;56.920;14.804;2022-12-18T07:47:04;9.90;;;5.00;;
18838;SDS011;9548;56.920;14.804;2022-12-18T07:49:31;11.73;;;4.87;;
18838;SDS011;9548;56.920;14.804;2022-12-18T07:51:58;15.20;;;5.43;;
18838;SDS011;9548;56.920;14.804;2022-12-18T07:54:25;15.47;;;5.43;;
18838;SDS011;9548;56.920;14.804;2022-12-18T07:56:51;14.53;;;5.63;;
18838;SDS011;9548;56.920;14.804;2022-12-18T07:59:19;12.93;;;4.73;;
18838;SDS011;9548;56.920;14.804;2022-12-18T08:01:47;12.27;;;6.03;;
18838;SDS011;9548;56.920;14.804;2022-12-18T08:04:14;15.00;;;5.90;;
18838;SDS011;9548;56.920;14.804;2022-12-18T08:06:41;14.07;;;6.33;;
18838;SDS011;9548;56.920;14.804;2022-12-18T08:09:09;13.03;;;5.90;;
18838;SDS011;9548;56.920;14.804;2022-12-18T08:11:36;14.30;;;6.00;;
18838;SDS011;9548;56.920;14.804;2022-12-18T08:14:03;11.00;;;5.87;;
18838;SDS011;9548;56.920;14.804;2022-12-18T08:16:30;13.93;;;5.70;;
18838;SDS011;9548;56.920;14.804;2022-12-18T08:18:59;12.90;;;5.70;;
18838;SDS011;9548;56.920;14.804;2022-12-18T08:21:26;12.20;;;6.07;;
18838;SDS011;9548;56.920;14.804;2022-12-18T08:23:56;13.43;;;5.57;;
18838;SDS011;9548;56.920;14.804;2022-12-18T08:26:24;17.00;;;6.33;;
18838;SDS011;9548;56.920;14.804;2022-12-18T08:28:53;13.53;;;5.83;;
18838;SDS011;9548;56.920;14.804;2022-12-18T08:31:22;12.77;;;5.40;;
18838;SDS011;9548;56.920;14.804;2022-12-18T08:33:49;9.80;;;4.60;;
18838;SDS011;9548;56.920;14.804;2022-12-18T08:36:19;12.53;;;6.03;;
18838;SDS011;9548;56.920;14.804;2022-12-18T08:38:46;11.77;;;5.90;;
18838;SDS011;9548;56.920;14.804;2022-12-18T08:41:14;13.80;;;5.87;;
18838;SDS011;9548;56.920;14.804;2022-12-18T08:43:42;14.70;;;5.80;;
18838;SDS011;9548;56.920;14.804;2022-12-18T08:46:30;11.17;;;5.40;;
18838;SDS011;9548;56.920;14.804;2022-12-18T08:49:00;12.60;;;5.83;;
18838;SDS011;9548;56.920;14.804;2022-12-18T08:51:28;13.97;;;5.67;;
18838;SDS011;9548;56.920;14.804;2022-12-18T08:53:55;14.20;;;5.40;;
18838;SDS011;9548;56.920;14.804;2022-12-18T08:56:22;13.87;;;5.77;;
18838;SDS011;9548;56.920;14.804;2022-12-18T08:58:50;15.23;;;6.20;;
18838;SDS011;9548;56.920;14.804;2022-12-18T09:01:18;13.17;;;6.03;;
18838;SDS011;9548;56.920;14.804;2022-12-18T09:03:45;12.43;;;5.30;;
18838;SDS011;9548;56.920;14.804;2022-12-18T09:06:13;12.40;;;6.03;;
18838;SDS011;9548;56.920;14.804;2022-12-18T09:08:42;12.50;;;5.47;;
18838;SDS011;9548;56.920;14.804;2022-12-18T09:11:11;10.63;;;5.47;;
18838;SDS011;9548;56.920;14.804;2022-12-18T09:13:41;12.57;;;5.73;;
18838;SDS011;9548;56.920;14.804;2022-12-18T09:16:07;11.93;;;5.77;;
18838;SDS011;9548;56.920;14.804;2022-12-18T09:18:35;14.83;;;5.97;;
18838;SDS011;9548;56.920;14.804;2022-12-18T09:21:07;13.43;;;6.00;;
18838;SDS011;9548;56.920;14.804;2022-12-18T09:23:35;10.30;;;5.63;;
18838;SDS011;9548;56.920;14.804;2022-12-18T09:26:03;11.77;;;5.53;;
18838;SDS011;9548;56.920;14.804;2022-12-18T09:28:30;15.53;;;5.77;;
18838;SDS011;9548;56.920;14.804;2022-12-18T09:30:57;12.53;;;6.30;;
18838;SDS011;9548;56.920;14.804;2022-12-18T09:33:24;14.33;;;5.93;;
18838;SDS011;9548;56.920;14.804;2022-12-18T09:35:52;15.27;;;5.83;;
18838;SDS011;9548;56.920;14.804;2022-12-18T09:38:19;10.60;;;5.23;;
18838;SDS011;9548;56.920;14.804;2022-12-18T09:40:48;14.37;;;5.63;;
18838;SDS011;9548;56.920;14.804;2022-12-18T09:43:19;14.20;;;5.83;;
18838;SDS011;9548;56.920;14.804;2022-12-18T09:45:51;12.57;;;5.50;;
18838;SDS011;9548;56.920;14.804;2022-12-18T09:48:35;15.53;;;5.80;;
18838;SDS011;9548;56.920;14.804;2022-12-18T09:51:10;12.20;;;5.13;;
18838;SDS011;9548;56.920;14.804;2022-12-18T09:53:40;12.07;;;5.97;;
18838;SDS011;9548;56.920;14.804;2022-12-18T09:56:11;14.57;;;5.00;;
18838;SDS011;9548;56.920;14.804;2022-12-18T09:58:44;10.37;;;5.07;;
18838;SDS011;9548;56.920;14.804;2022-12-18T10:01:17;11.83;;;5.27;;
18838;SDS011;9548;56.920;14.804;2022-12-18T10:03:47;14.40;;;5.23;;
18838;SDS011;9548;56.920;14.804;2022-12-18T10:06:15;10.20;;;5.03;;
18838;SDS011;9548;56.920;14.804;2022-12-18T10:08:49;11.43;;;5.63;;
18838;SDS011;9548;56.920;14.804;2022-12-18T10:11:26;13.17;;;5.30;;
18838;SDS011;9548;56.920;14.804;2022-12-18T10:14:03;12.53;;;5.30;;
18838;SDS011;9548;56.920;14.804;2022-12-18T10:16:39;10.33;;;5.07;;
18838;SDS011;9548;56.920;14.804;2022-12-18T10:19:29;10.03;;;4.30;;
18838;SDS011;9548;56.920;14.804;2022-12-18T10:22:16;9.40;;;4.97;;
18838;SDS011;9548;56.920;14.804;2022-12-18T10:24:50;11.67;;;5.00;;
18838;SDS011;9548;56.920;14.804;2022-12-18T10:27:23;10.83;;;4.97;;
18838;SDS011;9548;56.920;14.804;2022-12-18T10:29:53;11.30;;;5.60;;
18838;SDS011;9548;56.920;14.804;2022-12-18T10:32:21;9.13;;;4.90;;
18838;SDS011;9548;56.920;14.804;2022-12-18T10:34:51;11.73;;;5.20;;
18838;SDS011;9548;56.920;14.804;2022-12-18T10:37:20;10.10;;;4.97;;
18838;SDS011;9548;56.920;14.804;2022-12-18T10:40:04;12.60;;;5.13;;
18838;SDS011;9548;56.920;14.804;2022-12-18T10:42:34;12.00;;;5.17;;
18838;SDS011;9548;56.920;14.804;2022-12-18T10:45:03;9.53;;;5.00;;
18838;SDS011;9548;56.920;14.804;2022-12-18T10:47:36;15.70;;;5.87;;
18838;SDS011;9548;56.920;14.804;2022-12-18T10:50:11;9.03;;;5.10;;
18838;SDS011;9548;56.920;14.804;2022-12-18T10:52:52;12.03;;;4.83;;
18838;SDS011;9548;56.920;14.804;2022-12-18T10:55:20;10.43;;;4.93;;
18838;SDS011;9548;56.920;14.804;2022-12-18T10:57:47;8.90;;;4.50;;
18838;SDS011;9548;56.920;14.804;2022-12-18T11:00:23;8.67;;;4.40;;
18838;SDS011;9548;56.920;14.804;2022-12-18T11:02:53;7.90;;;4.23;;
18838;SDS011;9548;56.920;14.804;2022-12-18T11:05:25;10.37;;;4.20;;
18838;SDS011;9548;56.920;14.804;2022-12-18T11:07:54;9.30;;;4.27;;
18838;SDS011;9548;56.920;14.804;2022-12-18T11:10:23;10.03;;;5.00;;
18838;SDS011;9548;56.920;14.804;2022-12-18T11:12:54;8.43;;;4.30;;
18838;SDS011;9548;56.920;14.804;2022-12-18T11:15:23;7.87;;;4.20;;
18838;SDS011;9548;56.920;14.804;2022-12-18T11:17:54;11.90;;;4.90;;
18838;SDS011;9548;56.920;14.804;2022-12-18T11:20:30;12.67;;;4.17;;
18838;SDS011;9548;56.920;14.804;2022-12-18T11:22:59;9.87;;;5.13;;
18838;SDS011;9548;56.920;14.804;2022-12-18T11:25:30;9.37;;;4.70;;
18838;SDS011;9548;56.920;14.804;2022-12-18T11:27:59;11.87;;;4.97;;
18838;SDS011;9548;56.920;14.804;2022-12-18T11:30:29;12.70;;;4.93;;
18838;SDS011;9548;56.920;14.804;2022-12-18T11:33:01;11.63;;;5.00;;
18838;SDS011;9548;56.920;14.804;2022-12-18T11:35:35;9.50;;;5.10;;
18838;SDS011;9548;56.920;14.804;2022-12-18T11:38:10;12.57;;;4.90;;
18838;SDS011;9548;56.920;14.804;2022-12-18T11:40:44;11.37;;;4.97;;
18838;SDS011;9548;56.920;14.804;2022-12-18T11:43:16;8.63;;;4.47;;
18838;SDS011;9548;56.920;14.804;2022-12-18T11:45:51;11.40;;;5.20;;
18838;SDS011;9548;56.920;14.804;2022-12-18T11:48:21;8.97;;;4.97;;
18838;SDS011;9548;56.920;14.804;2022-12-18T11:50:52;11.63;;;4.87;;
18838;SDS011;9548;56.920;14.804;2022-12-18T11:53:21;10.57;;;5.07;;
18838;SDS011;9548;56.920;14.804;2022-12-18T11:55:51;14.57;;;4.97;;
18838;SDS011;9548;56.920;14.804;2022-12-18T11:58:33;12.27;;;5.77;;
18838;SDS011;9548;56.920;14.804;2022-12-18T12:01:13;10.40;;;5.00;;
18838;SDS011;9548;56.920;14.804;2022-12-18T12:03:51;10.90;;;5.10;;
18838;SDS011;9548;56.920;14.804;2022-12-18T12:06:43;10.10;;;5.40;;
18838;SDS011;9548;56.920;14.804;2022-12-18T12:09:21;11.63;;;4.87;;
18838;SDS011;9548;56.920;14.804;2022-12-18T12:11:59;10.77;;;5.10;;
18838;SDS011;9548;56.920;14.804;2022-12-18T12:14:44;11.20;;;5.13;;
18838;SDS011;9548;56.920;14.804;2022-12-18T12:17:20;11.50;;;5.27;;
18838;SDS011;9548;56.920;14.804;2022-12-18T12:19:57;11.90;;;5.23;;
18838;SDS011;9548;56.920;14.804;2022-12-18T12:22:31;14.13;;;5.47;;
18838;SDS011;9548;56.920;14.804;2022-12-18T12:25:12;12.40;;;4.93;;
18838;SDS011;9548;56.920;14.804;2022-12-18T12:27:48;9.43;;;4.97;;
18838;SDS011;9548;56.920;14.804;2022-12-18T12:30:22;10.50;;;5.37;;
18838;SDS011;9548;56.920;14.804;2022-12-18T12:33:02;13.37;;;5.40;;
18838;SDS011;9548;56.920;14.804;2022-12-18T12:35:42;13.37;;;5.00;;
18838;SDS011;9548;56.920;14.804;2022-12-18T12:38:16;9.87;;;5.07;;
18838;SDS011;9548;56.920;14.804;2022-12-18T12:40:49;10.87;;;5.33;;
18838;SDS011;9548;56.920;14.804;2022-12-18T12:43:22;10.50;;;5.53;;
18838;SDS011;9548;56.920;14.804;2022-12-18T12:45:54;10.83;;;5.23;;
18838;SDS011;9548;56.920;14.804;2022-12-18T12:48:31;13.97;;;5.97;;
18838;SDS011;9548;56.920;14.804;2022-12-18T12:51:10;13.10;;;5.83;;
18838;SDS011;9548;56.920;14.804;2022-12-18T12:53:40;13.13;;;5.87;;
18838;SDS011;9548;56.920;14.804;2022-12-18T12:56:08;13.10;;;6.10;;
18838;SDS011;9548;56.920;14.804;2022-12-18T12:58:39;10.60;;;5.53;;
18838;SDS011;9548;56.920;14.804;2022-12-18T13:01:17;12.53;;;5.60;;
18838;SDS011;9548;56.920;14.804;2022-12-18T13:03:58;14.77;;;6.03;;
18838;SDS011;9548;56.920;14.804;2022-12-18T13:06:37;14.97;;;6.43;;
18838;SDS011;9548;56.920;14.804;2022-12-18T13:09:10;11.03;;;5.37;;
18838;SDS011;9548;56.920;14.804;2022-12-18T13:11:38;14.07;;;5.87;;
18838;SDS011;9548;56.920;14.804;2022-12-18T13:14:26;9.70;;;5.43;;
18838;SDS011;9548;56.920;14.804;2022-12-18T13:22:46;12.53;;;5.93;;
18838;SDS011;9548;56.920;14.804;2022-12-18T13:25:33;14.90;;;5.80;;
18838;SDS011;9548;56.920;14.804;2022-12-18T13:28:09;13.73;;;5.70;;
18838;SDS011;9548;56.920;14.804;2022-12-18T13:30:41;14.43;;;5.97;;
18838;SDS011;9548;56.920;14.804;2022-12-18T13:36:25;15.23;;;6.07;;
18838;SDS011;9548;56.920;14.804;2022-12-18T13:39:11;15.87;;;6.00;;
18838;SDS011;9548;56.920;14.804;2022-12-18T13:41:49;14.60;;;5.77;;
18838;SDS011;9548;56.920;14.804;2022-12-18T13:44:30;11.33;;;5.47;;
18838;SDS011;9548;56.920;14.804;2022-12-18T13:46:58;13.23;;;6.20;;
18838;SDS011;9548;56.920;14.804;2022-12-18T13:49:26;13.63;;;5.50;;
18838;SDS011;9548;56.920;14.804;2022-12-18T13:52:03;12.23;;;5.90;;
18838;SDS011;9548;56.920;14.804;2022-12-18T13:54:42;13.37;;;5.63;;
18838;SDS011;9548;56.920;14.804;2022-12-18T13:57:24;19.93;;;5.73;;
18838;SDS011;9548;56.920;14.804;2022-12-18T13:59:53;11.00;;;5.70;;
18838;SDS011;9548;56.920;14.804;2022-12-18T14:02:21;13.57;;;5.80;;
18838;SDS011;9548;56.920;14.804;2022-12-18T14:04:50;11.60;;;5.70;;
18838;SDS011;9548;56.920;14.804;2022-12-18T14:07:19;11.07;;;5.57;;
18838;SDS011;9548;56.920;14.804;2022-12-18T14:09:49;15.37;;;5.67;;
18838;SDS011;9548;56.920;14.804;2022-12-18T14:12:18;13.60;;;6.10;;
18838;SDS011;9548;56.920;14.804;2022-12-18T14:15:06;12.30;;;5.93;;
18838;SDS011;9548;56.920;14.804;2022-12-18T14:17:46;14.97;;;6.03;;
18838;SDS011;9548;56.920;14.804;2022-12-18T14:20:14;17.33;;;6.87;;
18838;SDS011;9548;56.920;14.804;2022-12-18T14:22:44;13.60;;;6.10;;
18838;SDS011;9548;56.920;14.804;2022-12-18T14:25:15;14.63;;;6.70;;
18838;SDS011;9548;56.920;14.804;2022-12-18T14:27:46;13.33;;;5.80;;
18838;SDS011;9548;56.920;14.804;2022-12-18T14:30:29;14.80;;;6.17;;
18838;SDS011;9548;56.920;14.804;2022-12-18T14:33:03;16.50;;;6.07;;
18838;SDS011;9548;56.920;14.804;2022-12-18T14:35:31;11.47;;;5.30;;
18838;SDS011;9548;56.920;14.804;2022-12-18T14:38:19;16.00;;;6.10;;
18838;SDS011;9548;56.920;14.804;2022-12-18T14:40:51;11.47;;;5.43;;
18838;SDS011;9548;56.920;14.804;2022-12-18T14:43:20;12.67;;;6.13;;
18838;SDS011;9548;56.920;14.804;2022-12-18T14:45:47;12.53;;;6.33;;
18838;SDS011;9548;56.920;14.804;2022-12-18T14:48:15;14.20;;;5.67;;
18838;SDS011;9548;56.920;14.804;2022-12-18T14:50:44;12.17;;;6.07;;
18838;SDS011;9548;56.920;14.804;2022-12-18T14:53:21;14.53;;;6.53;;
18838;SDS011;9548;56.920;14.804;2022-12-18T14:55:52;21.53;;;6.07;;
18838;SDS011;9548;56.920;14.804;2022-12-18T14:58:19;12.50;;;5.27;;
18838;SDS011;9548;56.920;14.804;2022-12-18T15:00:46;16.63;;;5.93;;
18838;SDS011;9548;56.920;14.804;2022-12-18T15:03:14;18.70;;;6.40;;
18838;SDS011;9548;56.920;14.804;2022-12-18T15:05:45;14.80;;;6.73;;
18838;SDS011;9548;56.920;14.804;2022-12-18T15:08:30;13.70;;;6.10;;